sensor_id;sensor_type;location;lat;lon;timestamp;temperature;humidity
70928;SHT31;58587;53.034;18.576;2023-06-22T08:45:59;23.45;58.25
70928;SHT31;58587;53.034;18.576;2023-06-22T08:48:24;23.54;59.91
70928;SHT31;58587;53.034;18.576;2023-06-22T08:50:49;23.67;60.84
70928;SHT31;58587;53.034;18.576;2023-06-22T08:53:15;23.74;59.28
70928;SHT31;58587;53.034;18.576;2023-06-22T08:55:40;23.82;57.72
70928;SHT31;58587;53.034;18.576;2023-06-22T08:58:05;23.94;58.28
70928;SHT31;58587;53.034;18.576;2023-06-22T09:00:31;23.96;58.45
70928;SHT31;58587;53.034;18.576;2023-06-22T09:02:59;24.00;55.95
70928;SHT31;58587;53.034;18.576;2023-06-22T09:05:25;24.10;58.07
70928;SHT31;58587;53.034;18.576;2023-06-22T09:07:51;24.18;58.29
70928;SHT31;58587;53.034;18.576;2023-06-22T09:10:17;24.25;57.20
70928;SHT31;58587;53.034;18.576;2023-06-22T09:12:42;24.35;56.15
70928;SHT31;58587;53.034;18.576;2023-06-22T09:15:08;24.43;58.71
70928;SHT31;58587;53.034;18.576;2023-06-22T09:17:34;24.51;58.71
70928;SHT31;58587;53.034;18.576;2023-06-22T09:20:00;24.58;56.05
70928;SHT31;58587;53.034;18.576;2023-06-22T09:22:25;24.47;54.90
70928;SHT31;58587;53.034;18.576;2023-06-22T09:24:54;24.48;56.44
70928;SHT31;58587;53.034;18.576;2023-06-22T09:27:20;24.59;56.69
70928;SHT31;58587;53.034;18.576;2023-06-22T09:29:45;24.63;55.90
70928;SHT31;58587;53.034;18.576;2023-06-22T09:32:10;24.75;55.17
70928;SHT31;58587;53.034;18.576;2023-06-22T09:34:36;24.85;55.90
70928;SHT31;58587;53.034;18.576;2023-06-22T09:37:01;24.87;54.93
70928;SHT31;58587;53.034;18.576;2023-06-22T09:39:27;24.89;54.95
70928;SHT31;58587;53.034;18.576;2023-06-22T09:41:52;24.96;53.03
70928;SHT31;58587;53.034;18.576;2023-06-22T09:44:17;25.03;51.72
70928;SHT31;58587;53.034;18.576;2023-06-22T09:46:43;25.00;50.21
70928;SHT31;58587;53.034;18.576;2023-06-22T09:49:09;25.12;52.62
70928;SHT31;58587;53.034;18.576;2023-06-22T09:51:34;25.20;53.13
70928;SHT31;58587;53.034;18.576;2023-06-22T09:53:59;25.33;51.30
70928;SHT31;58587;53.034;18.576;2023-06-22T09:56:25;25.40;50.96
70928;SHT31;58587;53.034;18.576;2023-06-22T09:58:53;25.41;52.13
70928;SHT31;58587;53.034;18.576;2023-06-22T10:01:18;25.56;52.99
70928;SHT31;58587;53.034;18.576;2023-06-22T10:03:43;25.68;52.66
70928;SHT31;58587;53.034;18.576;2023-06-22T10:06:09;25.64;51.65
70928;SHT31;58587;53.034;18.576;2023-06-22T10:08:35;25.71;51.20
70928;SHT31;58587;53.034;18.576;2023-06-22T10:11:01;25.81;52.71
70928;SHT31;58587;53.034;18.576;2023-06-22T10:13:26;25.91;50.11
70928;SHT31;58587;53.034;18.576;2023-06-22T10:15:52;26.01;51.69
70928;SHT31;58587;53.034;18.576;2023-06-22T10:18:18;26.02;50.28
70928;SHT31;58587;53.034;18.576;2023-06-22T10:20:48;26.09;51.34
70928;SHT31;58587;53.034;18.576;2023-06-22T10:23:13;26.21;47.28
70928;SHT31;58587;53.034;18.576;2023-06-22T10:25:38;26.09;46.72
70928;SHT31;58587;53.034;18.576;2023-06-22T10:28:04;26.06;45.68
70928;SHT31;58587;53.034;18.576;2023-06-22T10:30:29;26.11;44.70
70928;SHT31;58587;53.034;18.576;2023-06-22T10:32:54;26.18;47.85
70928;SHT31;58587;53.034;18.576;2023-06-22T10:35:20;26.28;48.36
70928;SHT31;58587;53.034;18.576;2023-06-22T10:37:46;26.36;47.37
70928;SHT31;58587;53.034;18.576;2023-06-22T10:40:13;26.46;47.52
70928;SHT31;58587;53.034;18.576;2023-06-22T10:42:40;26.64;48.90
70928;SHT31;58587;53.034;18.576;2023-06-22T10:45:06;26.76;48.63
70928;SHT31;58587;53.034;18.576;2023-06-22T10:47:31;26.94;48.54
70928;SHT31;58587;53.034;18.576;2023-06-22T10:49:56;27.07;46.31
70928;SHT31;58587;53.034;18.576;2023-06-22T10:52:22;27.11;46.14
70928;SHT31;58587;53.034;18.576;2023-06-22T10:54:47;27.24;46.22
70928;SHT31;58587;53.034;18.576;2023-06-22T10:57:13;27.20;44.18
70928;SHT31;58587;53.034;18.576;2023-06-22T10:59:38;27.33;45.91
70928;SHT31;58587;53.034;18.576;2023-06-22T11:02:03;27.51;45.80
70928;SHT31;58587;53.034;18.576;2023-06-22T11:04:29;27.58;45.30
70928;SHT31;58587;53.034;18.576;2023-06-22T11:06:54;27.62;45.05
70928;SHT31;58587;53.034;18.576;2023-06-22T11:09:21;27.66;43.93
70928;SHT31;58587;53.034;18.576;2023-06-22T11:11:47;27.71;41.81
70928;SHT31;58587;53.034;18.576;2023-06-22T11:14:13;27.81;43.03
70928;SHT31;58587;53.034;18.576;2023-06-22T11:16:39;27.91;45.02
70928;SHT31;58587;53.034;18.576;2023-06-22T11:19:05;28.05;46.34
70928;SHT31;58587;53.034;18.576;2023-06-22T11:21:30;28.12;45.53
70928;SHT31;58587;53.034;18.576;2023-06-22T11:23:56;28.20;41.27
70928;SHT31;58587;53.034;18.576;2023-06-22T11:26:22;28.20;42.30
70928;SHT31;58587;53.034;18.576;2023-06-22T11:28:47;28.29;41.30
70928;SHT31;58587;53.034;18.576;2023-06-22T11:31:12;28.35;41.77
70928;SHT31;58587;53.034;18.576;2023-06-22T11:33:38;28.23;41.44
70928;SHT31;58587;53.034;18.576;2023-06-22T11:36:03;28.47;41.95
70928;SHT31;58587;53.034;18.576;2023-06-22T11:38:28;28.56;41.65
70928;SHT31;58587;53.034;18.576;2023-06-22T11:40:55;28.69;42.84
70928;SHT31;58587;53.034;18.576;2023-06-22T11:43:21;28.87;43.44
70928;SHT31;58587;53.034;18.576;2023-06-22T11:45:46;29.00;42.61
70928;SHT31;58587;53.034;18.576;2023-06-22T11:48:12;29.17;42.92
70928;SHT31;58587;53.034;18.576;2023-06-22T11:50:37;29.24;42.05
70928;SHT31;58587;53.034;18.576;2023-06-22T11:53:02;29.24;41.46
70928;SHT31;58587;53.034;18.576;2023-06-22T11:55:29;29.32;41.85
70928;SHT31;58587;53.034;18.576;2023-06-22T11:57:55;29.58;41.54
70928;SHT31;58587;53.034;18.576;2023-06-22T12:00:23;29.65;40.61
70928;SHT31;58587;53.034;18.576;2023-06-22T12:02:50;29.81;41.04
70928;SHT31;58587;53.034;18.576;2023-06-22T12:05:18;29.96;39.95
70928;SHT31;58587;53.034;18.576;2023-06-22T12:07:43;30.13;39.97
70928;SHT31;58587;53.034;18.576;2023-06-22T12:10:08;30.27;39.88
70928;SHT31;58587;53.034;18.576;2023-06-22T12:12:34;29.90;39.38
70928;SHT31;58587;53.034;18.576;2023-06-22T12:14:59;30.03;41.42
70928;SHT31;58587;53.034;18.576;2023-06-22T12:17:28;30.06;40.18
70928;SHT31;58587;53.034;18.576;2023-06-22T12:19:54;30.32;39.74
70928;SHT31;58587;53.034;18.576;2023-06-22T12:22:19;30.63;41.02
70928;SHT31;58587;53.034;18.576;2023-06-22T12:24:44;30.83;40.24
70928;SHT31;58587;53.034;18.576;2023-06-22T12:27:10;30.98;41.18
70928;SHT31;58587;53.034;18.576;2023-06-22T12:29:35;31.21;40.74
70928;SHT31;58587;53.034;18.576;2023-06-22T12:32:00;31.61;40.42
70928;SHT31;58587;53.034;18.576;2023-06-22T12:34:26;31.73;38.32
70928;SHT31;58587;53.034;18.576;2023-06-22T12:36:51;31.80;37.55
70928;SHT31;58587;53.034;18.576;2023-06-22T12:39:19;32.09;38.51
70928;SHT31;58587;53.034;18.576;2023-06-22T12:41:44;32.10;37.36
70928;SHT31;58587;53.034;18.576;2023-06-22T12:44:09;32.22;36.47
70928;SHT31;58587;53.034;18.576;2023-06-22T12:46:35;32.50;36.62
70928;SHT31;58587;53.034;18.576;2023-06-22T12:49:03;32.85;37.53
70928;SHT31;58587;53.034;18.576;2023-06-22T12:51:29;32.16;36.83
70928;SHT31;58587;53.034;18.576;2023-06-22T12:53:55;32.43;36.88
70928;SHT31;58587;53.034;18.576;2023-06-22T12:56:20;32.64;36.88
70928;SHT31;58587;53.034;18.576;2023-06-22T12:58:45;32.33;36.14
70928;SHT31;58587;53.034;18.576;2023-06-22T13:01:11;32.53;37.27
70928;SHT31;58587;53.034;18.576;2023-06-22T13:03:36;32.95;35.83
70928;SHT31;58587;53.034;18.576;2023-06-22T13:06:01;33.19;36.09
70928;SHT31;58587;53.034;18.576;2023-06-22T13:08:28;33.46;35.49
70928;SHT31;58587;53.034;18.576;2023-06-22T13:10:54;32.45;35.13
70928;SHT31;58587;53.034;18.576;2023-06-22T13:13:21;32.39;36.07
70928;SHT31;58587;53.034;18.576;2023-06-22T13:15:49;32.87;35.54
70928;SHT31;58587;53.034;18.576;2023-06-22T13:18:14;33.26;34.17
70928;SHT31;58587;53.034;18.576;2023-06-22T13:20:39;33.56;34.67
70928;SHT31;58587;53.034;18.576;2023-06-22T13:23:04;33.82;33.09
70928;SHT31;58587;53.034;18.576;2023-06-22T13:25:30;33.95;33.85
70928;SHT31;58587;53.034;18.576;2023-06-22T13:27:55;33.77;33.81
70928;SHT31;58587;53.034;18.576;2023-06-22T13:30:20;33.31;36.79
70928;SHT31;58587;53.034;18.576;2023-06-22T13:32:46;33.77;34.92
70928;SHT31;58587;53.034;18.576;2023-06-22T13:35:11;34.17;34.74
70928;SHT31;58587;53.034;18.576;2023-06-22T13:37:37;34.58;34.98
70928;SHT31;58587;53.034;18.576;2023-06-22T13:40:04;34.72;33.20
70928;SHT31;58587;53.034;18.576;2023-06-22T13:42:31;34.61;31.88
70928;SHT31;58587;53.034;18.576;2023-06-22T13:44:56;35.24;33.70
70928;SHT31;58587;53.034;18.576;2023-06-22T13:47:22;35.46;31.76
70928;SHT31;58587;53.034;18.576;2023-06-22T13:49:47;35.53;30.96
70928;SHT31;58587;53.034;18.576;2023-06-22T13:52:12;35.79;31.28
70928;SHT31;58587;53.034;18.576;2023-06-22T13:54:38;36.34;31.14
70928;SHT31;58587;53.034;18.576;2023-06-22T13:57:04;36.55;31.57
70928;SHT31;58587;53.034;18.576;2023-06-22T13:59:29;36.78;31.29
70928;SHT31;58587;53.034;18.576;2023-06-22T14:01:55;36.68;29.49
70928;SHT31;58587;53.034;18.576;2023-06-22T14:04:23;36.63;30.90
70928;SHT31;58587;53.034;18.576;2023-06-22T14:06:48;36.92;29.79
70928;SHT31;58587;53.034;18.576;2023-06-22T14:09:13;37.13;29.85
70928;SHT31;58587;53.034;18.576;2023-06-22T14:11:39;37.39;29.69
70928;SHT31;58587;53.034;18.576;2023-06-22T14:14:04;37.24;28.77
70928;SHT31;58587;53.034;18.576;2023-06-22T14:16:29;37.17;27.77
70928;SHT31;58587;53.034;18.576;2023-06-22T14:18:55;37.02;28.24
70928;SHT31;58587;53.034;18.576;2023-06-22T14:21:20;37.13;28.28
70928;SHT31;58587;53.034;18.576;2023-06-22T14:23:45;37.48;31.33
70928;SHT31;58587;53.034;18.576;2023-06-22T14:26:14;36.78;29.98
70928;SHT31;58587;53.034;18.576;2023-06-22T14:28:42;35.92;30.70
70928;SHT31;58587;53.034;18.576;2023-06-22T14:31:09;36.50;30.17
70928;SHT31;58587;53.034;18.576;2023-06-22T14:33:34;36.32;29.29
70928;SHT31;58587;53.034;18.576;2023-06-22T14:35:59;36.63;29.16
70928;SHT31;58587;53.034;18.576;2023-06-22T14:38:25;36.95;28.68
70928;SHT31;58587;53.034;18.576;2023-06-22T14:40:50;37.24;28.35
70928;SHT31;58587;53.034;18.576;2023-06-22T14:43:15;36.97;28.96
70928;SHT31;58587;53.034;18.576;2023-06-22T14:45:41;36.87;28.77
70928;SHT31;58587;53.034;18.576;2023-06-22T14:48:06;36.88;29.01
70928;SHT31;58587;53.034;18.576;2023-06-22T14:50:31;36.81;27.86
70928;SHT31;58587;53.034;18.576;2023-06-22T14:52:57;37.14;30.43
70928;SHT31;58587;53.034;18.576;2023-06-22T14:55:22;37.25;28.60
70928;SHT31;58587;53.034;18.576;2023-06-22T14:57:47;37.13;28.35
70928;SHT31;58587;53.034;18.576;2023-06-22T15:00:13;37.01;27.92
70928;SHT31;58587;53.034;18.576;2023-06-22T15:02:38;37.32;27.80
70928;SHT31;58587;53.034;18.576;2023-06-22T15:05:03;37.43;28.12
70928;SHT31;58587;53.034;18.576;2023-06-22T15:07:29;37.38;28.13
70928;SHT31;58587;53.034;18.576;2023-06-22T15:09:54;37.39;28.33
70928;SHT31;58587;53.034;18.576;2023-06-22T15:12:20;37.35;28.00
70928;SHT31;58587;53.034;18.576;2023-06-22T15:14:45;37.15;28.28
70928;SHT31;58587;53.034;18.576;2023-06-22T15:17:10;36.78;28.10
70928;SHT31;58587;53.034;18.576;2023-06-22T15:19:36;36.67;27.76
70928;SHT31;58587;53.034;18.576;2023-06-22T15:22:05;36.63;28.78
70928;SHT31;58587;53.034;18.576;2023-06-22T15:24:31;36.63;28.51
70928;SHT31;58587;53.034;18.576;2023-06-22T15:26:57;36.74;28.97
70928;SHT31;58587;53.034;18.576;2023-06-22T15:29:22;36.67;29.04
70928;SHT31;58587;53.034;18.576;2023-06-22T15:31:47;36.55;30.04
70928;SHT31;58587;53.034;18.576;2023-06-22T15:34:13;36.75;28.86
70928;SHT31;58587;53.034;18.576;2023-06-22T15:36:40;36.74;29.11
70928;SHT31;58587;53.034;18.576;2023-06-22T15:39:05;36.55;28.56
70928;SHT31;58587;53.034;18.576;2023-06-22T15:41:30;36.53;27.85
70928;SHT31;58587;53.034;18.576;2023-06-22T15:43:56;36.09;28.68
70928;SHT31;58587;53.034;18.576;2023-06-22T15:46:21;36.37;28.94
70928;SHT31;58587;53.034;18.576;2023-06-22T15:48:46;36.12;29.14
70928;SHT31;58587;53.034;18.576;2023-06-22T15:51:11;35.81;29.27
70928;SHT31;58587;53.034;18.576;2023-06-22T15:53:37;35.78;29.88
70928;SHT31;58587;53.034;18.576;2023-06-22T15:56:02;35.53;30.88
70928;SHT31;58587;53.034;18.576;2023-06-22T15:58:29;35.14;30.34
70928;SHT31;58587;53.034;18.576;2023-06-22T16:00:54;35.15;30.31
70928;SHT31;58587;53.034;18.576;2023-06-22T16:03:20;34.87;30.44
70928;SHT31;58587;53.034;18.576;2023-06-22T16:05:45;34.77;31.43
70928;SHT31;58587;53.034;18.576;2023-06-22T16:08:11;34.77;31.14
70928;SHT31;58587;53.034;18.576;2023-06-22T16:10:38;34.33;31.91
70928;SHT31;58587;53.034;18.576;2023-06-22T16:13:03;34.07;31.92
70928;SHT31;58587;53.034;18.576;2023-06-22T16:15:29;33.45;33.40
70928;SHT31;58587;53.034;18.576;2023-06-22T16:17:54;33.14;34.80
70928;SHT31;58587;53.034;18.576;2023-06-22T16:20:20;32.84;34.63
70928;SHT31;58587;53.034;18.576;2023-06-22T16:22:46;32.81;34.15
70928;SHT31;58587;53.034;18.576;2023-06-22T16:25:12;32.59;35.19
70928;SHT31;58587;53.034;18.576;2023-06-22T16:27:38;32.40;33.33
70928;SHT31;58587;53.034;18.576;2023-06-22T16:30:07;32.00;35.18
70928;SHT31;58587;53.034;18.576;2023-06-22T16:32:32;31.76;36.24
70928;SHT31;58587;53.034;18.576;2023-06-22T16:34:58;31.70;35.23
70928;SHT31;58587;53.034;18.576;2023-06-22T16:37:23;31.41;35.62
70928;SHT31;58587;53.034;18.576;2023-06-22T16:39:49;31.10;36.47
70928;SHT31;58587;53.034;18.576;2023-06-22T16:42:14;30.92;37.95
70928;SHT31;58587;53.034;18.576;2023-06-22T16:44:40;30.74;36.58
70928;SHT31;58587;53.034;18.576;2023-06-22T16:47:05;30.53;37.71
70928;SHT31;58587;53.034;18.576;2023-06-22T16:49:31;29.90;37.12
70928;SHT31;58587;53.034;18.576;2023-06-22T16:51:57;29.73;39.00
70928;SHT31;58587;53.034;18.576;2023-06-22T16:54:23;29.58;38.50
70928;SHT31;58587;53.034;18.576;2023-06-22T16:56:49;29.42;39.60
70928;SHT31;58587;53.034;18.576;2023-06-22T16:59:14;29.24;40.55
70928;SHT31;58587;53.034;18.576;2023-06-22T17:01:49;29.12;39.51
70928;SHT31;58587;53.034;18.576;2023-06-22T17:04:19;29.03;41.29
70928;SHT31;58587;53.034;18.576;2023-06-22T17:06:53;28.81;40.44
70928;SHT31;58587;53.034;18.576;2023-06-22T17:09:21;28.77;40.91
70928;SHT31;58587;53.034;18.576;2023-06-22T17:11:51;28.70;41.26
70928;SHT31;58587;53.034;18.576;2023-06-22T17:14:16;28.59;40.52
70928;SHT31;58587;53.034;18.576;2023-06-22T17:16:43;28.47;40.84
70928;SHT31;58587;53.034;18.576;2023-06-22T17:19:10;28.29;41.14
70928;SHT31;58587;53.034;18.576;2023-06-22T17:21:36;28.23;41.19
70928;SHT31;58587;53.034;18.576;2023-06-22T17:24:01;28.19;40.76
70928;SHT31;58587;53.034;18.576;2023-06-22T17:26:27;28.09;40.76
70928;SHT31;58587;53.034;18.576;2023-06-22T17:28:53;27.98;42.52
70928;SHT31;58587;53.034;18.576;2023-06-22T17:31:38;27.80;42.34
70928;SHT31;58587;53.034;18.576;2023-06-22T17:34:17;27.65;42.81
70928;SHT31;58587;53.034;18.576;2023-06-22T17:36:49;27.59;42.80
70928;SHT31;58587;53.034;18.576;2023-06-22T17:39:18;27.54;42.72
70928;SHT31;58587;53.034;18.576;2023-06-22T17:41:45;27.35;43.96
70928;SHT31;58587;53.034;18.576;2023-06-22T17:44:18;27.31;44.66
70928;SHT31;58587;53.034;18.576;2023-06-22T17:46:44;27.29;44.37
70928;SHT31;58587;53.034;18.576;2023-06-22T17:49:11;27.18;44.08
70928;SHT31;58587;53.034;18.576;2023-06-22T17:51:41;27.10;44.02
70928;SHT31;58587;53.034;18.576;2023-06-22T17:54:07;27.03;44.03
70928;SHT31;58587;53.034;18.576;2023-06-22T17:56:32;26.96;44.78
70928;SHT31;58587;53.034;18.576;2023-06-22T17:58:58;26.82;46.63
70928;SHT31;58587;53.034;18.576;2023-06-22T18:01:38;26.68;47.42
70928;SHT31;58587;53.034;18.576;2023-06-22T18:04:08;26.46;47.41
70928;SHT31;58587;53.034;18.576;2023-06-22T18:09:04;26.15;48.62
70928;SHT31;58587;53.034;18.576;2023-06-22T18:11:45;26.08;48.91
70928;SHT31;58587;53.034;18.576;2023-06-22T18:14:13;25.99;51.07
70928;SHT31;58587;53.034;18.576;2023-06-22T18:16:41;25.81;50.96
70928;SHT31;58587;53.034;18.576;2023-06-22T18:19:08;25.70;50.58
70928;SHT31;58587;53.034;18.576;2023-06-22T18:21:35;25.64;51.13
70928;SHT31;58587;53.034;18.576;2023-06-22T18:24:01;25.53;50.38
70928;SHT31;58587;53.034;18.576;2023-06-22T18:26:27;25.40;52.60
70928;SHT31;58587;53.034;18.576;2023-06-22T18:28:56;25.34;52.84
70928;SHT31;58587;53.034;18.576;2023-06-22T18:31:23;25.26;52.94
70928;SHT31;58587;53.034;18.576;2023-06-22T18:33:53;25.13;54.08
70928;SHT31;58587;53.034;18.576;2023-06-22T18:36:29;25.03;52.83
70928;SHT31;58587;53.034;18.576;2023-06-22T18:39:00;24.90;54.91
70928;SHT31;58587;53.034;18.576;2023-06-22T18:41:38;24.82;53.74
70928;SHT31;58587;53.034;18.576;2023-06-22T18:44:17;24.68;54.15
70928;SHT31;58587;53.034;18.576;2023-06-22T18:46:43;24.55;54.70
70928;SHT31;58587;53.034;18.576;2023-06-22T18:49:13;24.45;55.80
70928;SHT31;58587;53.034;18.576;2023-06-22T18:57:13;24.14;55.60
70928;SHT31;58587;53.034;18.576;2023-06-22T18:59:40;24.01;56.82
70928;SHT31;58587;53.034;18.576;2023-06-22T19:02:10;23.88;56.00
70928;SHT31;58587;53.034;18.576;2023-06-22T19:04:40;23.77;57.81
70928;SHT31;58587;53.034;18.576;2023-06-22T19:07:06;23.69;58.46
70928;SHT31;58587;53.034;18.576;2023-06-22T19:09:35;23.57;58.26
70928;SHT31;58587;53.034;18.576;2023-06-22T19:12:23;23.47;59.69
70928;SHT31;58587;53.034;18.576;2023-06-22T19:15:08;23.37;59.39
70928;SHT31;58587;53.034;18.576;2023-06-22T19:17:34;23.29;59.88
70928;SHT31;58587;53.034;18.576;2023-06-22T19:20:04;23.19;59.28
70928;SHT31;58587;53.034;18.576;2023-06-22T19:22:43;23.06;60.82
70928;SHT31;58587;53.034;18.576;2023-06-22T19:25:17;22.96;61.50
70928;SHT31;58587;53.034;18.576;2023-06-22T19:27:42;22.84;61.69
70928;SHT31;58587;53.034;18.576;2023-06-22T19:30:09;22.76;61.75
70928;SHT31;58587;53.034;18.576;2023-06-22T19:32:34;22.69;61.63
70928;SHT31;58587;53.034;18.576;2023-06-22T19:35:01;22.59;62.03
70928;SHT31;58587;53.034;18.576;2023-06-22T19:37:27;22.51;63.00
70928;SHT31;58587;53.034;18.576;2023-06-22T19:39:53;22.41;63.50
70928;SHT31;58587;53.034;18.576;2023-06-22T19:42:18;22.35;63.55
70928;SHT31;58587;53.034;18.576;2023-06-22T19:44:44;22.27;63.76
70928;SHT31;58587;53.034;18.576;2023-06-22T19:47:09;22.18;63.59
70928;SHT31;58587;53.034;18.576;2023-06-22T19:49:35;22.10;63.60
70928;SHT31;58587;53.034;18.576;2023-06-22T19:52:06;22.04;63.01
70928;SHT31;58587;53.034;18.576;2023-06-22T19:54:32;21.96;63.92
70928;SHT31;58587;53.034;18.576;2023-06-22T19:57:02;21.84;64.00
70928;SHT31;58587;53.034;18.576;2023-06-22T19:59:27;21.81;64.03
70928;SHT31;58587;53.034;18.576;2023-06-22T20:01:52;21.76;64.27
70928;SHT31;58587;53.034;18.576;2023-06-22T20:04:18;21.66;64.48
70928;SHT31;58587;53.034;18.576;2023-06-22T20:07:03;21.63;64.73
70928;SHT31;58587;53.034;18.576;2023-06-22T20:09:28;21.56;65.76
70928;SHT31;58587;53.034;18.576;2023-06-22T20:11:57;21.49;66.13
70928;SHT31;58587;53.034;18.576;2023-06-22T20:14:22;21.39;66.20
70928;SHT31;58587;53.034;18.576;2023-06-22T20:16:48;21.38;67.16
70928;SHT31;58587;53.034;18.576;2023-06-22T20:19:19;21.22;66.85
70928;SHT31;58587;53.034;18.576;2023-06-22T20:21:45;21.26;66.28
70928;SHT31;58587;53.034;18.576;2023-06-22T20:24:11;21.16;66.76
70928;SHT31;58587;53.034;18.576;2023-06-22T20:26:40;21.12;66.91
70928;SHT31;58587;53.034;18.576;2023-06-22T20:29:31;21.10;66.45
70928;SHT31;58587;53.034;18.576;2023-06-22T20:34:40;21.03;66.34
70928;SHT31;58587;53.034;18.576;2023-06-22T20:37:10;20.92;67.51
70928;SHT31;58587;53.034;18.576;2023-06-22T20:39:36;20.89;67.74
70928;SHT31;58587;53.034;18.576;2023-06-22T20:42:02;20.84;67.45
70928;SHT31;58587;53.034;18.576;2023-06-22T20:44:29;20.78;68.06
70928;SHT31;58587;53.034;18.576;2023-06-22T20:46:55;20.71;67.73
70928;SHT31;58587;53.034;18.576;2023-06-22T20:49:20;20.64;68.28
70928;SHT31;58587;53.034;18.576;2023-06-22T20:51:45;20.61;68.67
70928;SHT31;58587;53.034;18.576;2023-06-22T20:54:11;20.58;69.12
70928;SHT31;58587;53.034;18.576;2023-06-22T20:56:36;20.49;69.87
70928;SHT31;58587;53.034;18.576;2023-06-22T20:59:01;20.45;70.23
70928;SHT31;58587;53.034;18.576;2023-06-22T21:01:27;20.44;69.68
70928;SHT31;58587;53.034;18.576;2023-06-22T21:03:58;20.38;69.95
70928;SHT31;58587;53.034;18.576;2023-06-22T21:06:23;20.41;69.18
70928;SHT31;58587;53.034;18.576;2023-06-22T21:08:48;20.40;69.26
70928;SHT31;58587;53.034;18.576;2023-06-22T21:11:14;20.38;69.44
70928;SHT31;58587;53.034;18.576;2023-06-22T21:13:39;20.33;69.44
70928;SHT31;58587;53.034;18.576;2023-06-22T21:16:06;20.28;69.69
70928;SHT31;58587;53.034;18.576;2023-06-22T21:18:31;20.27;69.86
